Grizzly Air Cargo 5355


PAVD
Valdez Pioneer Field Airport
Valdez, Alaska, US
PANC
Ted Stevens Anchorage International Airport
Anchorage, Alaska, US

Activity Log

Date Flight Route Aircraft Duration
09/26/2019 GRZ555 FJORD1 YESKA YESKA6 SF34 0h 33m

Route Details

Aircraft Information
Primary: Saab 340AF
Backup: Not Available
Route Data
Distance: 120nm
Sched. Duration: 0h 60m
Avg. Duration: 0h 33m (-27m)
Times Flown: 1
Recm'd Route: FJORD1 YESKA YESKA6
Planned Altitude: 16,000ft
Origin Wx: PAVD 210656Z 00000KT 1 3/4SM -SN BR SCT003 BKN010 OVC015 00/M01 A2896
Dest. Wx: PANC 210953Z 17005KT 10SM SCT070 M06/M06 A2891 RMK AO2 SLP792 I1000 T10561056 $
Notes:

Financial History
Total Freight: 4,505lbs
Average Load: 4,505lbs/flt
Fuel Used: 469lbs
Avg. Fuel Used: 469lbs/flt
Fuel Expense: $516
Avg. Fuel Expense: $516
Avg. Fuel Cost: $1.10/lbs
Total Gross Income: $8,514
Pilot Pay: $229
Total Expenses: $972
Total Revenue: $6,896
Average Revenue: $8,514.45